Atglen, Pennsylvania
Current Conditions -  °F | °C
As of 8:55 AM on Monday 24 Nov 2014 (Local Time) from KMQS Reporting Station
Overcast Overcast  
Wind Chill: 64°   Ceiling: 1000
Heat Index: 64°   Visibility: 10mi
Dew Point: 61°   Wind: 7mph
Humidity: 88%   Direction: 210°SSW
Pressure: 29.68"   Gusts: NA
Location:  39.95°N, 75.97°W
Report Text: KMQS 241355Z AUTO 21006KT 180V290 10SM BKN010 OVC013 18/16 A2968 RMK AO2
Loading
Personal Weather Stations






























Interactive Weather Map New forecast layout! Learn more

10-Day Weather Forecast

Advertisements
Track Severe Weather on mobile